»·PEaware :: SWA811 KABQ-KLAS

SWA811 :: KABQ-KLAS

FLIGHT INFORMATION

Flight Status: Arrived
Operator:
Southwest Airlines
More flights by this operator :: More flights under this callsign
Pilot: Patricio R. (14780)
Aircraft: BOEING 737-800
(B738)
More flights by this aircraft type
Origin: KABQ Albuquerque Intl Sunport
United States
Destination: KLAS McCarran Intl
United States
More flights between these airports :: More routes between these airports
Route: +RDRNR3 GUP J72 PGS TYSSN5
File this flight plan on PilotEdge
Remarks:
Altitude:
(Current/Filed)
38,000ft
Speed:
(Current/Filed)
458kts
Departed: 18-Aug-18 09:58 AM
Arrived: 18-Aug-18 11:15 AM
Distance/Time
Traveled:
421nm/1:16
Distance/Time
To Go:
Arrived

Flight Plot

Page will automatically refresh every two minutes.

Flight plan parsing failed; only flown route is shown


Map Options




Map Legend


Flown Route
Filed Route
Departure Airport
Arrival Airport
Navaid (VOR, NDB)
Fix

Horizontal Profiles

Position Reports

Time Latitude Longitude Heading Altitude Ground
Speed
18-Aug-18 09:43 35.047884 -106.614314 213 5323ft 0kts
18-Aug-18 09:44 35.047884 -106.614314 213 5323ft 0kts
18-Aug-18 09:45 35.047884 -106.614314 213 5323ft 0kts
18-Aug-18 09:46 35.047884 -106.614314 213 5323ft 0kts
18-Aug-18 09:47 35.047884 -106.614314 213 5323ft 0kts
18-Aug-18 09:48 35.047884 -106.614314 213 5323ft 0kts
18-Aug-18 09:49 35.047884 -106.614314 213 5323ft 0kts
18-Aug-18 09:50 35.047884 -106.614314 213 5323ft 0kts
18-Aug-18 09:51 35.048066 -106.614169 212 5323ft 2kts
18-Aug-18 09:52 35.048366 -106.614303 90 5323ft 1kts
18-Aug-18 09:53 35.048366 -106.614317 90 5323ft 0kts
18-Aug-18 09:54 35.048364 -106.614167 90 5323ft 3kts
18-Aug-18 09:55 35.046927 -106.613102 182 5323ft 10kts
18-Aug-18 09:56 35.045550 -106.614992 270 5322ft 9kts
18-Aug-18 09:57 35.045574 -106.619178 270 5323ft 14kts
18-Aug-18 09:58 35.044452 -106.621189 127 5323ft 7kts
18-Aug-18 09:59 35.044133 -106.592757 88 5473ft 165kts
18-Aug-18 10:00 35.045727 -106.532580 57 7277ft 197kts
18-Aug-18 10:01 35.082723 -106.559167 278 9245ft 241kts
18-Aug-18 10:02 35.086618 -106.640785 275 12181ft 243kts
18-Aug-18 10:03 35.090401 -106.730237 274 13931ft 292kts
18-Aug-18 10:04 35.101280 -106.830518 281 16579ft 304kts
18-Aug-18 10:05 35.117108 -106.933617 281 19095ft 315kts
18-Aug-18 10:06 35.133319 -107.040472 280 21372ft 325kts
18-Aug-18 10:07 35.149816 -107.150306 280 23445ft 334kts
18-Aug-18 10:08 35.166646 -107.263038 280 25370ft 342kts
18-Aug-18 10:09 35.185376 -107.378111 281 27131ft 349kts
18-Aug-18 10:10 35.204455 -107.495694 280 28682ft 357kts
18-Aug-18 10:11 35.223796 -107.615803 280 30123ft 364kts
18-Aug-18 10:12 35.243044 -107.736438 279 31453ft 371kts
18-Aug-18 10:13 35.262772 -107.861121 279 32717ft 377kts
18-Aug-18 10:14 35.282528 -107.986697 279 34181ft 375kts
18-Aug-18 10:15 35.301968 -108.111157 279 35535ft 371kts
18-Aug-18 10:16 35.321188 -108.235025 279 36719ft 369kts
18-Aug-18 10:17 35.340217 -108.358477 279 37715ft 369kts
18-Aug-18 10:18 35.370230 -108.479213 286 38379ft 378kts
18-Aug-18 10:19 35.404270 -108.605221 286 38386ft 403kts
18-Aug-18 10:20 35.439375 -108.736401 285 38385ft 413kts
18-Aug-18 10:21 35.474172 -108.869670 280 38385ft 411kts
18-Aug-18 10:22 35.483788 -109.008870 272 38391ft 410kts
18-Aug-18 10:23 35.490408 -109.147507 273 38392ft 408kts
18-Aug-18 10:24 35.496996 -109.285973 273 38391ft 408kts
18-Aug-18 10:25 35.503499 -109.424672 273 38389ft 408kts
18-Aug-18 10:26 35.509867 -109.563225 273 38388ft 408kts
18-Aug-18 10:27 35.516047 -109.701274 273 38396ft 408kts
18-Aug-18 10:28 35.522056 -109.840238 273 38395ft 408kts
18-Aug-18 10:29 35.527907 -109.978393 273 38379ft 408kts
18-Aug-18 10:30 35.533626 -110.116978 273 38331ft 408kts
18-Aug-18 10:31 35.538697 -110.255742 272 38308ft 408kts
18-Aug-18 10:32 35.543119 -110.392788 272 38307ft 408kts
18-Aug-18 10:33 35.547582 -110.531378 272 38306ft 408kts
18-Aug-18 10:34 35.552181 -110.670112 272 38311ft 408kts
18-Aug-18 10:35 35.556854 -110.808391 272 38312ft 408kts
18-Aug-18 10:36 35.561732 -110.947192 273 38311ft 409kts
18-Aug-18 10:37 35.566806 -111.086974 274 38310ft 412kts
18-Aug-18 10:38 35.572066 -111.227141 274 38362ft 413kts
18-Aug-18 10:39 35.577462 -111.367182 274 38446ft 413kts
18-Aug-18 10:40 35.582990 -111.508144 274 38452ft 413kts
18-Aug-18 10:41 35.585795 -111.648242 273 38449ft 413kts
18-Aug-18 10:42 35.588361 -111.787102 273 38439ft 413kts
18-Aug-18 10:43 35.591500 -111.927558 273 38430ft 413kts
18-Aug-18 10:44 35.595791 -112.068104 273 38429ft 413kts
18-Aug-18 10:45 35.600044 -112.209019 274 38428ft 413kts
18-Aug-18 10:46 35.604338 -112.349501 274 38427ft 413kts
18-Aug-18 10:47 35.607551 -112.490235 273 38426ft 413kts
18-Aug-18 10:48 35.609693 -112.631227 273 38425ft 413kts
18-Aug-18 10:49 35.611599 -112.767329 272 38427ft 391kts
18-Aug-18 10:50 35.613669 -112.902257 273 38430ft 398kts
18-Aug-18 10:51 35.615820 -113.035276 273 37405ft 383kts
18-Aug-18 10:52 35.618154 -113.168477 273 34536ft 390kts
18-Aug-18 10:53 35.620547 -113.299486 273 32220ft 380kts
18-Aug-18 10:54 35.623017 -113.427715 274 29955ft 371kts
18-Aug-18 10:55 35.626049 -113.551805 279 27442ft 360kts
18-Aug-18 10:56 35.642199 -113.669085 282 25012ft 350kts
18-Aug-18 10:57 35.658743 -113.785051 282 22607ft 342kts
18-Aug-18 10:58 35.674808 -113.898440 282 20298ft 334kts
18-Aug-18 10:59 35.690383 -114.009132 282 18097ft 326kts
18-Aug-18 11:00 35.705599 -114.118000 281 16260ft 320kts
18-Aug-18 11:01 35.720373 -114.224429 281 14612ft 314kts
18-Aug-18 11:02 35.734840 -114.329282 282 13023ft 308kts
18-Aug-18 11:03 35.786695 -114.404623 337 11751ft 288kts
18-Aug-18 11:04 35.858561 -114.438611 340 10926ft 268kts
18-Aug-18 11:05 35.926397 -114.470205 340 10105ft 256kts
18-Aug-18 11:06 35.985164 -114.511517 302 9769ft 250kts
18-Aug-18 11:07 36.016365 -114.586442 297 9072ft 246kts
18-Aug-18 11:08 36.046608 -114.661359 297 8481ft 244kts
18-Aug-18 11:09 36.073479 -114.737364 271 7945ft 242kts
18-Aug-18 11:10 36.073339 -114.821225 270 7045ft 241kts
18-Aug-18 11:11 36.073449 -114.900256 270 5727ft 218kts
18-Aug-18 11:12 36.073575 -114.970851 270 4562ft 199kts
18-Aug-18 11:13 36.073639 -115.033061 270 3544ft 162kts
18-Aug-18 11:14 36.073653 -115.085923 271 2707ft 155kts
18-Aug-18 11:15 36.073638 -115.137375 269 2081ft 120kts
18-Aug-18 11:16 36.077056 -115.152345 334 2124ft 24kts
18-Aug-18 11:17 36.078673 -115.149530 94 2110ft 15kts
18-Aug-18 11:18 36.079942 -115.147846 0 2102ft 4kts
18-Aug-18 11:19 36.080297 -115.147297 60 2099ft 0kts

Navigation Log

Ident Type
Flight plan parsing failed, navigation log unavailable